Time;durP1;ratioP1;P1;durP2;ratioP2;P2;SDS_P1;SDS_P2;PMS_P1;PMS_P2;Temp;Humidity;BMP_temperature;BMP_pressure;BME280_temperature;BME280_humidity;BME280_pressure;Samples;Min_cycle;Max_cycle;Signal;HPM_P1;HPM_P2
2024/01/05 16:07:15;;;;;;;10.60;9.60;;;7.10;99.90;;;;;;5030983;27;20746;-72
2024/01/05 16:09:47;;;;;;;10.77;9.68;;;6.60;99.90;;;;;;5015821;28;20043;-73
2024/01/05 16:12:18;;;;;;;11.32;10.23;;;6.70;99.90;;;;;;5014797;28;20527;-73
2024/01/05 16:14:48;;;;;;;10.55;9.55;;;6.70;99.90;;;;;;5015547;28;20033;-73
2024/01/05 16:17:14;;;;;;;11.35;10.18;;;6.70;99.90;;;;;;4995439;28;20046;-73
2024/01/05 16:19:40;;;;;;;11.60;10.48;;;6.60;99.90;;;;;;4988258;27;20056;-73
2024/01/05 16:22:05;;;;;;;11.48;10.27;;;6.70;99.90;;;;;;4971231;28;20064;-73
2024/01/05 16:24:31;;;;;;;9.80;8.80;;;6.70;99.90;;;;;;5059470;28;20041;-73
2024/01/05 16:26:59;;;;;;;10.45;9.45;;;6.60;99.90;;;;;;5061226;28;20037;-73
2024/01/05 16:29:25;;;;;;;11.13;10.02;;;6.70;99.90;;;;;;5063309;28;20037;-73
2024/01/05 16:31:50;;;;;;;10.35;9.30;;;6.60;99.90;;;;;;5063822;28;20052;-72
2024/01/05 16:34:16;;;;;;;10.45;9.35;;;6.60;99.90;;;;;;5060046;28;20489;-72
2024/01/05 16:36:42;;;;;;;9.90;8.90;;;6.70;99.90;;;;;;5060822;28;20132;-72
2024/01/05 16:39:11;;;;;;;10.65;8.45;;;6.70;99.90;;;;;;5064117;28;20044;-76
2024/01/05 16:41:36;;;;;;;8.90;8.10;;;6.70;99.90;;;;;;5052642;28;20079;-77
2024/01/05 16:44:02;;;;;;;9.20;8.32;;;6.70;99.90;;;;;;5056132;28;20053;-76
2024/01/05 17:05:06;;;;;;;10.02;9.02;;;6.70;99.90;;;;;;1433030;26;20079;-77
2024/01/05 17:11:33;;;;;;;11.00;9.90;;;6.70;99.90;;;;;;5017209;28;20057;-76
2024/01/05 17:15:02;;;;;;;;;;;;;;;;;;;;;
2024/01/05 17:33:03;;;;;;;16.67;12.32;;;6.70;99.90;;;;;;5008260;28;20053;-76
2024/01/05 17:36:05;;;;;;;;;;;;;;;;;;;;;
2024/01/05 17:38:46;;;;;;;;;;;;;;;;;;;;;
2024/01/05 17:41:36;;;;;;;14.15;12.65;;;6.70;99.90;;;;;;5006426;28;20060;-76
2024/01/05 17:44:06;;;;;;;15.35;13.45;;;6.70;99.90;;;;;;5012358;28;20719;-76
2024/01/05 17:46:59;;;;;;;15.85;14.18;;;6.70;99.90;;;;;;5025103;28;20128;-76
2024/01/05 17:53:34;;;;;;;;;;;;;;;;;;;;;
2024/01/05 17:56:32;;;;;;;16.77;14.55;;;6.80;99.90;;;;;;5010620;28;20106;-76
2024/01/05 17:59:08;;;;;;;15.80;13.90;;;6.70;99.90;;;;;;5011595;28;20615;-76
2024/01/05 18:01:55;;;;;;;17.20;14.52;;;6.70;99.90;;;;;;5010979;28;20111;-76
2024/01/05 18:04:21;;;;;;;16.70;13.75;;;6.70;99.90;;;;;;5009909;28;20045;-76
2024/01/05 18:06:50;;;;;;;15.60;13.95;;;6.70;99.90;;;;;;5012686;28;20091;-76
2024/01/05 18:09:22;;;;;;;18.33;15.07;;;6.80;99.90;;;;;;4993081;28;20049;-76
2024/01/05 18:11:53;;;;;;;17.48;14.75;;;6.80;99.90;;;;;;5012976;28;20068;-75
2024/01/05 18:14:22;;;;;;;16.75;14.93;;;6.70;99.90;;;;;;5010477;28;20052;-75
2024/01/05 18:16:49;;;;;;;14.88;13.30;;;6.70;99.90;;;;;;5010067;28;20105;-75
2024/01/05 18:19:15;;;;;;;17.35;14.20;;;6.80;99.90;;;;;;4994909;28;20048;-75
2024/01/05 18:21:41;;;;;;;14.52;13.02;;;6.70;99.90;;;;;;4973471;28;20092;-76
2024/01/05 18:24:07;;;;;;;14.45;12.75;;;6.70;99.90;;;;;;4967494;28;21692;-76
2024/01/05 18:26:37;;;;;;;14.73;13.13;;;6.70;99.90;;;;;;4971292;28;20048;-76
2024/01/05 18:29:06;;;;;;;15.98;12.50;;;6.70;99.90;;;;;;4964948;28;23233;-76
2024/01/05 18:31:35;;;;;;;13.70;12.02;;;6.70;99.90;;;;;;4970003;28;20057;-75
2024/01/05 18:34:03;;;;;;;13.95;12.40;;;6.60;99.90;;;;;;4968589;28;20182;-75
2024/01/05 18:36:29;;;;;;;13.70;12.23;;;6.50;99.90;;;;;;4990039;28;21021;-76
2024/01/05 18:38:55;;;;;;;14.45;12.40;;;6.50;99.90;;;;;;5008927;28;20052;-75
2024/01/05 18:41:24;;;;;;;13.70;12.20;;;6.40;99.90;;;;;;5013170;28;20622;-75
2024/01/05 18:43:51;;;;;;;13.73;12.23;;;6.40;99.90;;;;;;5013303;28;20076;-75
2024/01/05 18:46:17;;;;;;;11.85;10.68;;;6.40;99.90;;;;;;5011363;28;20041;-76
2024/01/05 18:48:43;;;;;;;12.27;11.07;;;6.30;99.90;;;;;;5008075;28;20060;-76
2024/01/05 18:51:09;;;;;;;11.93;10.70;;;6.30;99.90;;;;;;5013457;28;20039;-75
2024/01/05 18:53:35;;;;;;;13.63;11.65;;;6.30;99.90;;;;;;5012417;28;20051;-76
2024/01/05 18:56:01;;;;;;;12.77;11.30;;;6.20;99.90;;;;;;5011808;28;20403;-75
2024/01/05 18:58:27;;;;;;;12.57;11.05;;;6.20;99.90;;;;;;5014451;28;20507;-75
2024/01/05 19:00:53;;;;;;;12.52;11.32;;;6.10;99.90;;;;;;5015732;28;20138;-76
2024/01/05 19:03:19;;;;;;;12.75;11.45;;;6.10;99.90;;;;;;4998385;28;21316;-76
2024/01/05 19:05:44;;;;;;;13.52;11.57;;;6.00;99.90;;;;;;5008163;28;20049;-72
2024/01/05 19:08:11;;;;;;;13.30;11.90;;;6.00;99.90;;;;;;5010366;28;20056;-72
2024/01/05 19:10:37;;;;;;;13.88;12.45;;;6.00;99.90;;;;;;5027106;28;20045;-72
2024/01/05 19:13:03;;;;;;;13.40;12.10;;;6.00;99.90;;;;;;5008742;28;20104;-72
2024/01/05 19:15:29;;;;;;;13.57;12.18;;;6.00;99.90;;;;;;5011532;28;20144;-72
2024/01/05 19:17:55;;;;;;;57.38;42.00;;;5.90;99.90;;;;;;5007012;28;20057;-72
2024/01/05 19:20:21;;;;;;;20.80;17.02;;;5.90;99.90;;;;;;5009967;28;21056;-73
2024/01/05 19:22:47;;;;;;;22.45;18.75;;;5.90;99.90;;;;;;5009477;28;20689;-72
2024/01/05 19:25:13;;;;;;;104.15;59.80;;;5.90;99.90;;;;;;5007690;28;20049;-72
2024/01/05 19:27:39;;;;;;;18.30;16.35;;;5.90;99.90;;;;;;5010420;28;20044;-72
2024/01/05 19:30:06;;;;;;;104.22;63.05;;;5.90;99.90;;;;;;5011729;28;20045;-72
2024/01/05 19:32:32;;;;;;;23.27;19.08;;;5.90;99.90;;;;;;5013642;28;21040;-72
2024/01/05 19:35:01;;;;;;;30.38;22.80;;;5.80;99.90;;;;;;5010877;28;20465;-72
2024/01/05 19:37:27;;;;;;;19.48;16.95;;;5.70;99.90;;;;;;5013233;28;20471;-72
2024/01/05 19:39:53;;;;;;;184.07;92.13;;;5.70;99.90;;;;;;5011744;28;20099;-72
2024/01/05 19:42:20;;;;;;;75.95;41.75;;;5.70;99.90;;;;;;5010238;28;20045;-72
2024/01/05 19:44:46;;;;;;;32.20;26.80;;;5.70;99.90;;;;;;5010029;28;20042;-72
2024/01/05 19:47:12;;;;;;;25.15;22.48;;;5.70;99.90;;;;;;4993879;28;20073;-72
2024/01/05 19:49:38;;;;;;;29.13;26.02;;;5.60;99.90;;;;;;5011359;28;20497;-72
2024/01/05 19:52:05;;;;;;;24.35;21.95;;;5.70;99.90;;;;;;5010427;28;20050;-72
2024/01/05 19:54:31;;;;;;;19.73;17.83;;;5.60;99.90;;;;;;5011302;28;20040;-72
2024/01/05 19:56:59;;;;;;;26.15;22.73;;;5.60;99.90;;;;;;5009166;28;20045;-72
2024/01/05 19:59:25;;;;;;;18.35;16.45;;;5.50;99.90;;;;;;5012000;28;20041;-72
2024/01/05 20:01:51;;;;;;;19.38;17.35;;;5.50;99.90;;;;;;5010080;28;20046;-72
2024/01/05 20:04:17;;;;;;;34.63;26.52;;;5.40;99.90;;;;;;5009220;28;20093;-72
2024/01/05 20:06:47;;;;;;;27.67;21.50;;;5.40;99.90;;;;;;5011648;28;20092;-72
2024/01/05 20:09:16;;;;;;;86.82;43.20;;;5.40;99.90;;;;;;5010487;28;20567;-72
2024/01/05 20:11:44;;;;;;;42.30;25.67;;;5.30;99.90;;;;;;5028369;28;20045;-72
2024/01/05 20:14:11;;;;;;;28.95;20.45;;;5.30;99.90;;;;;;5010922;28;20048;-72
2024/01/05 20:16:37;;;;;;;63.55;32.92;;;5.30;99.90;;;;;;5027493;28;20494;-72
2024/01/05 20:19:05;;;;;;;73.95;36.35;;;5.30;99.90;;;;;;5010525;28;20041;-72
2024/01/05 20:21:35;;;;;;;27.30;20.20;;;5.30;99.90;;;;;;5011916;28;20046;-73
2024/01/05 20:24:01;;;;;;;31.42;21.70;;;5.30;99.90;;;;;;5009752;28;20168;-73
2024/01/05 20:26:29;;;;;;;19.17;16.20;;;5.30;99.90;;;;;;5011627;28;20103;-72
2024/01/05 20:28:55;;;;;;;86.20;38.28;;;5.30;99.90;;;;;;4993595;28;20066;-72
2024/01/05 20:31:20;;;;;;;29.00;20.08;;;5.20;99.90;;;;;;5011187;28;20757;-72
2024/01/05 20:33:47;;;;;;;84.15;34.75;;;5.20;99.90;;;;;;5013884;28;20073;-72
2024/01/05 20:36:16;;;;;;;58.42;25.98;;;5.20;99.90;;;;;;5009967;28;20578;-72
2024/01/05 20:38:45;;;;;;;502.90;157.35;;;5.20;99.90;;;;;;5010312;28;20125;-72
2024/01/05 20:41:11;;;;;;;31.52;21.35;;;5.10;99.90;;;;;;5009670;28;20053;-72
2024/01/05 20:43:39;;;;;;;293.92;94.38;;;5.00;99.90;;;;;;5012421;28;20067;-72
2024/01/05 20:46:05;;;;;;;34.38;20.38;;;5.10;99.90;;;;;;5012393;28;20119;-73
2024/01/05 20:48:31;;;;;;;67.72;29.00;;;5.10;99.90;;;;;;5010819;28;20045;-73
2024/01/05 20:50:56;;;;;;;29.23;19.17;;;5.10;99.90;;;;;;5014297;28;20159;-72
2024/01/05 20:53:22;;;;;;;161.18;51.90;;;5.10;99.90;;;;;;5013741;28;20127;-73
2024/01/05 20:55:53;;;;;;;102.47;34.70;;;5.10;99.90;;;;;;5012422;28;20053;-72
2024/01/05 20:58:19;;;;;;;20.35;15.20;;;5.10;99.90;;;;;;5013962;28;20053;-73
2024/01/05 21:00:44;;;;;;;62.72;26.73;;;5.00;99.90;;;;;;5013200;28;20056;-73
2024/01/05 21:03:10;;;;;;;115.43;46.53;;;5.00;99.90;;;;;;5014025;28;20049;-72
2024/01/05 21:05:36;;;;;;;32.25;20.20;;;4.90;99.90;;;;;;5011800;28;20042;-73
2024/01/05 21:08:06;;;;;;;27.42;18.58;;;4.90;99.90;;;;;;5012919;28;20049;-73
2024/01/05 21:10:32;;;;;;;151.38;75.85;;;4.90;99.90;;;;;;5010120;28;20080;-73
2024/01/05 21:12:58;;;;;;;59.95;31.70;;;4.90;99.90;;;;;;5013293;28;20484;-72
2024/01/05 21:15:24;;;;;;;23.17;17.33;;;4.90;99.90;;;;;;5012920;28;20057;-73
2024/01/05 21:17:49;;;;;;;99.18;45.22;;;4.90;99.90;;;;;;5012547;28;20056;-73
2024/01/05 21:20:15;;;;;;;113.55;48.38;;;4.90;99.90;;;;;;5014617;28;20049;-73
2024/01/05 21:22:41;;;;;;;104.72;47.78;;;4.90;99.90;;;;;;5014241;28;20041;-72
2024/01/05 21:25:08;;;;;;;31.58;20.52;;;4.90;99.90;;;;;;5011522;28;20064;-73
2024/01/05 21:27:34;;;;;;;24.63;18.58;;;4.90;99.90;;;;;;5014764;28;20051;-72
2024/01/05 21:30:00;;;;;;;26.17;20.35;;;4.80;99.90;;;;;;5013578;28;20137;-72
2024/01/05 21:32:27;;;;;;;21.95;18.10;;;4.80;99.90;;;;;;5009327;28;20526;-72
2024/01/05 21:34:54;;;;;;;24.23;19.30;;;4.80;99.90;;;;;;5015772;28;20041;-72
2024/01/05 21:37:21;;;;;;;22.88;19.50;;;4.80;99.90;;;;;;5014387;28;20053;-72
2024/01/05 21:39:46;;;;;;;16.52;14.05;;;4.80;99.90;;;;;;5011098;28;20037;-73
2024/01/05 21:42:12;;;;;;;16.25;14.55;;;4.80;99.90;;;;;;5015138;28;20056;-73
2024/01/05 21:44:38;;;;;;;20.70;18.08;;;4.80;99.90;;;;;;5012076;28;20930;-73
2024/01/05 21:47:04;;;;;;;20.40;17.42;;;4.80;99.90;;;;;;5014363;28;20132;-73
2024/01/05 21:49:30;;;;;;;16.38;14.63;;;4.70;99.90;;;;;;5009823;28;20050;-73
2024/01/05 21:51:57;;;;;;;15.43;13.80;;;4.70;99.90;;;;;;5014405;28;20052;-73
2024/01/05 21:54:25;;;;;;;15.23;13.48;;;4.70;99.90;;;;;;5013782;28;20045;-73
2024/01/05 21:56:51;;;;;;;23.60;20.35;;;4.60;99.90;;;;;;5012626;28;20084;-73
2024/01/05 21:59:17;;;;;;;19.08;16.85;;;4.60;99.90;;;;;;5012571;28;20131;-73
2024/01/05 22:01:46;;;;;;;16.30;14.60;;;4.60;99.90;;;;;;5013916;28;20050;-73
2024/01/05 22:04:11;;;;;;;16.15;14.35;;;4.60;99.90;;;;;;5014012;28;20049;-73
2024/01/05 22:06:37;;;;;;;16.50;14.45;;;4.60;99.90;;;;;;5014275;28;20390;-72
2024/01/05 22:09:08;;;;;;;16.27;14.57;;;4.60;99.90;;;;;;5011503;28;20512;-73
2024/01/05 22:11:39;;;;;;;14.93;13.23;;;4.60;99.90;;;;;;5015118;28;20427;-73
2024/01/05 22:14:04;;;;;;;16.60;14.73;;;4.60;99.90;;;;;;5011077;28;20419;-72
2024/01/05 22:16:30;;;;;;;17.00;15.00;;;4.60;99.90;;;;;;5009054;28;20049;-72
2024/01/05 22:18:55;;;;;;;17.00;15.00;;;4.50;99.90;;;;;;5010458;28;20080;-73
2024/01/05 22:21:22;;;;;;;16.05;14.35;;;4.50;99.90;;;;;;5015418;28;20089;-73
2024/01/05 22:23:47;;;;;;;16.00;14.20;;;4.50;99.90;;;;;;5010249;28;20053;-72
2024/01/05 22:26:24;;;;;;;16.67;14.85;;;4.50;99.90;;;;;;5009914;28;20041;-73
2024/01/05 22:28:50;;;;;;;14.93;13.40;;;4.50;99.90;;;;;;5010328;28;20049;-73
2024/01/05 22:31:16;;;;;;;14.38;12.88;;;4.50;99.90;;;;;;5010564;28;20049;-72
2024/01/05 22:33:44;;;;;;;15.38;13.20;;;4.50;99.90;;;;;;5010900;28;20041;-72
2024/01/05 22:36:14;;;;;;;15.10;12.63;;;4.40;99.90;;;;;;5012533;28;20046;-72
2024/01/05 22:38:40;;;;;;;14.23;12.73;;;4.40;99.90;;;;;;5008943;28;20074;-73
2024/01/05 22:41:11;;;;;;;15.38;13.77;;;4.40;99.90;;;;;;5011315;28;20092;-73
2024/01/05 22:43:38;;;;;;;14.32;12.82;;;4.40;99.90;;;;;;5009976;28;20045;-73
2024/01/05 22:46:04;;;;;;;15.40;12.93;;;4.40;99.90;;;;;;5017875;28;20049;-72
2024/01/05 22:48:30;;;;;;;16.88;14.15;;;4.30;99.90;;;;;;4998919;28;20135;-73
2024/01/05 22:50:56;;;;;;;14.93;13.07;;;4.40;99.90;;;;;;5015181;28;20040;-73
2024/01/05 22:53:22;;;;;;;13.55;11.95;;;4.30;99.90;;;;;;5014629;28;20053;-73
2024/01/05 22:55:47;;;;;;;15.68;13.98;;;4.30;99.90;;;;;;5015593;28;20045;-72
2024/01/05 22:58:13;;;;;;;17.25;15.05;;;4.30;99.90;;;;;;5014658;28;20480;-73
2024/01/05 23:00:40;;;;;;;24.13;21.60;;;4.30;99.90;;;;;;5015630;28;20129;-73
2024/01/05 23:03:10;;;;;;;19.52;17.23;;;4.20;99.90;;;;;;5014393;28;20050;-73
2024/01/05 23:05:36;;;;;;;15.07;12.88;;;4.20;99.90;;;;;;5015820;28;20049;-73
2024/01/05 23:08:03;;;;;;;14.80;13.30;;;4.20;99.90;;;;;;5015310;28;20080;-72
2024/01/05 23:10:29;;;;;;;14.93;13.20;;;4.20;99.90;;;;;;5015656;28;22040;-73
2024/01/05 23:12:55;;;;;;;14.23;12.65;;;4.20;99.90;;;;;;5015537;28;20052;-72
2024/01/05 23:15:20;;;;;;;13.45;12.00;;;4.20;99.90;;;;;;5008468;28;20049;-72
2024/01/05 23:17:46;;;;;;;13.10;11.52;;;4.10;99.90;;;;;;5015101;28;20145;-73
2024/01/05 23:20:12;;;;;;;12.70;10.95;;;4.10;99.90;;;;;;5013553;28;20080;-72
2024/01/05 23:22:37;;;;;;;12.13;10.57;;;4.10;99.90;;;;;;5013072;28;20156;-73
2024/01/05 23:25:03;;;;;;;12.40;11.10;;;4.10;99.90;;;;;;5012115;28;20076;-73
2024/01/05 23:27:29;;;;;;;12.80;11.50;;;4.00;99.90;;;;;;5014564;28;20054;-72
2024/01/05 23:29:54;;;;;;;13.77;12.18;;;4.10;99.90;;;;;;5012021;28;20042;-72
2024/01/05 23:32:21;;;;;;;12.75;10.95;;;4.10;99.90;;;;;;5014855;28;20453;-72
2024/01/05 23:34:46;;;;;;;12.15;10.85;;;4.00;99.90;;;;;;5010950;28;20488;-73
2024/01/05 23:37:12;;;;;;;12.55;11.20;;;4.10;99.90;;;;;;5015360;28;20095;-73
2024/01/05 23:39:38;;;;;;;13.25;11.55;;;4.00;99.90;;;;;;5014198;28;20068;-73
2024/01/05 23:42:04;;;;;;;14.30;12.07;;;4.00;99.90;;;;;;5014946;28;20053;-72
2024/01/05 23:44:29;;;;;;;13.93;11.77;;;4.00;99.90;;;;;;5012855;28;20110;-72
2024/01/05 23:46:55;;;;;;;14.77;12.70;;;3.90;99.90;;;;;;4998152;28;20087;-73
2024/01/05 23:49:20;;;;;;;13.70;12.30;;;3.90;99.90;;;;;;5014698;28;20140;-72
2024/01/05 23:51:46;;;;;;;13.55;12.15;;;3.90;99.90;;;;;;5016483;28;20099;-73
2024/01/05 23:54:12;;;;;;;12.90;11.60;;;3.90;99.90;;;;;;5013846;28;20089;-72
2024/01/05 23:56:37;;;;;;;13.30;11.90;;;3.90;99.90;;;;;;5015826;28;20045;-73
2024/01/05 23:59:03;;;;;;;13.98;12.57;;;3.90;99.90;;;;;;5013461;28;20132;-72
